<?xml version="1.0" encoding="utf-8"?>
<gpx xmlns:xsi="http://www.w3.org/2001/XMLSchema-instance" xmlns:xsd="http://www.w3.org/2001/XMLSchema" version="1.1" creator="Shapelink.com" xmlns="http://www.topografix.com/GPX/1/1" xmlns:gpxtpx="http://www.garmin.com/xmlschemas/TrackPointExtension/v1">
  <metadata>
    <name>Laufen 5.43 km, 2019-08-20</name>
    <desc></desc>
    <author><name>Daniel Persson</name></author> 
    <time>2019-08-20T20:09:34Z</time>
  </metadata>
  <trk>
    <name>Laufen 5.43 km, 2019-08-20</name>
    <trkseg>
      <trkpt lat="57.748913474065" lon="13.194502665952">
        <ele>338</ele>
        <time>2019-08-20T20:09:34Z</time>
      </trkpt>
      <trkpt lat="57.74893400972" lon="13.194507275997">
        <ele>340.8</ele>
        <time>2019-08-20T20:09:35Z</time>
      </trkpt>
      <trkpt lat="57.748953539547" lon="13.194532421697">
        <ele>342.2</ele>
        <time>2019-08-20T20:09:36Z</time>
      </trkpt>
      <trkpt lat="57.748996119599" lon="13.194579527975">
        <ele>343.2</ele>
        <time>2019-08-20T20:09:38Z</time>
      </trkpt>
      <trkpt lat="57.749200805597" lon="13.194623784407">
        <ele>342.8</ele>
        <time>2019-08-20T20:09:45Z</time>
      </trkpt>
      <trkpt lat="57.749397109695" lon="13.194624790235">
        <ele>342.8</ele>
        <time>2019-08-20T20:09:52Z</time>
      </trkpt>
      <trkpt lat="57.749593078517" lon="13.194644990614">
        <ele>344</ele>
        <time>2019-08-20T20:09:59Z</time>
      </trkpt>
      <trkpt lat="57.749624845918" lon="13.194642056949">
        <ele>344.4</ele>
        <time>2019-08-20T20:10:00Z</time>
      </trkpt>
      <trkpt lat="57.749815366505" lon="13.194707854864">
        <ele>345</ele>
        <time>2019-08-20T20:10:07Z</time>
      </trkpt>
      <trkpt lat="57.74990463374" lon="13.194783962516">
        <ele>345.8</ele>
        <time>2019-08-20T20:10:11Z</time>
      </trkpt>
      <trkpt lat="57.750069673351" lon="13.194939614399">
        <ele>345.6</ele>
        <time>2019-08-20T20:10:18Z</time>
      </trkpt>
      <trkpt lat="57.750111079937" lon="13.195109515512">
        <ele>346.8</ele>
        <time>2019-08-20T20:10:22Z</time>
      </trkpt>
      <trkpt lat="57.750071936464" lon="13.195448731005">
        <ele>346</ele>
        <time>2019-08-20T20:10:29Z</time>
      </trkpt>
      <trkpt lat="57.75005802251" lon="13.195494328541">
        <ele>345.8</ele>
        <time>2019-08-20T20:10:30Z</time>
      </trkpt>
      <trkpt lat="57.749951656199" lon="13.195780402788">
        <ele>346.2</ele>
        <time>2019-08-20T20:10:37Z</time>
      </trkpt>
      <trkpt lat="57.749932545467" lon="13.195818540433">
        <ele>348</ele>
        <time>2019-08-20T20:10:38Z</time>
      </trkpt>
      <trkpt lat="57.749916200762" lon="13.195855420793">
        <ele>346.8</ele>
        <time>2019-08-20T20:10:39Z</time>
      </trkpt>
      <trkpt lat="57.749878230755" lon="13.195931025531">
        <ele>345.2</ele>
        <time>2019-08-20T20:10:41Z</time>
      </trkpt>
      <trkpt lat="57.749762225259" lon="13.196167981844">
        <ele>344</ele>
        <time>2019-08-20T20:10:47Z</time>
      </trkpt>
      <trkpt lat="57.749604896996" lon="13.196418265378">
        <ele>343.2</ele>
        <time>2019-08-20T20:10:55Z</time>
      </trkpt>
      <trkpt lat="57.749546894248" lon="13.196498144885">
        <ele>342.8</ele>
        <time>2019-08-20T20:10:58Z</time>
      </trkpt>
      <trkpt lat="57.74942602725" lon="13.196643067936">
        <ele>341.6</ele>
        <time>2019-08-20T20:11:04Z</time>
      </trkpt>
      <trkpt lat="57.749335670368" lon="13.19673577175">
        <ele>340.6</ele>
        <time>2019-08-20T20:11:08Z</time>
      </trkpt>
      <trkpt lat="57.749221927985" lon="13.196858063671">
        <ele>339.4</ele>
        <time>2019-08-20T20:11:13Z</time>
      </trkpt>
      <trkpt lat="57.749128385981" lon="13.196958311195">
        <ele>338</ele>
        <time>2019-08-20T20:11:17Z</time>
      </trkpt>
      <trkpt lat="57.749037610004" lon="13.197050847371">
        <ele>337</ele>
        <time>2019-08-20T20:11:21Z</time>
      </trkpt>
      <trkpt lat="57.748967704958" lon="13.19712385372">
        <ele>335.8</ele>
        <time>2019-08-20T20:11:24Z</time>
      </trkpt>
      <trkpt lat="57.748923197069" lon="13.197173977482">
        <ele>334.8</ele>
        <time>2019-08-20T20:11:26Z</time>
      </trkpt>
      <trkpt lat="57.748807107754" lon="13.197283528915">
        <ele>333.8</ele>
        <time>2019-08-20T20:11:31Z</time>
      </trkpt>
      <trkpt lat="57.748634356795" lon="13.197458626806">
        <ele>333</ele>
        <time>2019-08-20T20:11:39Z</time>
      </trkpt>
      <trkpt lat="57.748467892261" lon="13.197632132136">
        <ele>333.2</ele>
        <time>2019-08-20T20:11:47Z</time>
      </trkpt>
      <trkpt lat="57.748316934242" lon="13.19777428916">
        <ele>332.6</ele>
        <time>2019-08-20T20:11:53Z</time>
      </trkpt>
      <trkpt lat="57.748145943482" lon="13.197958188046">
        <ele>332.6</ele>
        <time>2019-08-20T20:12:00Z</time>
      </trkpt>
      <trkpt lat="57.74809498153" lon="13.198005461962">
        <ele>333.8</ele>
        <time>2019-08-20T20:12:02Z</time>
      </trkpt>
      <trkpt lat="57.747970342677" lon="13.19815147466">
        <ele>332.8</ele>
        <time>2019-08-20T20:12:07Z</time>
      </trkpt>
      <trkpt lat="57.747805303066" lon="13.19833503827">
        <ele>332.4</ele>
        <time>2019-08-20T20:12:14Z</time>
      </trkpt>
      <trkpt lat="57.747717544573" lon="13.19842891555">
        <ele>331.8</ele>
        <time>2019-08-20T20:12:18Z</time>
      </trkpt>
      <trkpt lat="57.747587960399" lon="13.198560930475">
        <ele>330.6</ele>
        <time>2019-08-20T20:12:24Z</time>
      </trkpt>
      <trkpt lat="57.747448485583" lon="13.198683306215">
        <ele>329.4</ele>
        <time>2019-08-20T20:12:30Z</time>
      </trkpt>
      <trkpt lat="57.747323679092" lon="13.198751786338">
        <ele>328.6</ele>
        <time>2019-08-20T20:12:35Z</time>
      </trkpt>
      <trkpt lat="57.747124273691" lon="13.198856895364">
        <ele>327.2</ele>
        <time>2019-08-20T20:12:42Z</time>
      </trkpt>
      <trkpt lat="57.746989911834" lon="13.198929650256">
        <ele>326.2</ele>
        <time>2019-08-20T20:12:47Z</time>
      </trkpt>
      <trkpt lat="57.746865692076" lon="13.198985054615">
        <ele>325.2</ele>
        <time>2019-08-20T20:12:52Z</time>
      </trkpt>
      <trkpt lat="57.746728983287" lon="13.199048924693">
        <ele>323.8</ele>
        <time>2019-08-20T20:12:57Z</time>
      </trkpt>
      <trkpt lat="57.746531086628" lon="13.199119165015">
        <ele>323</ele>
        <time>2019-08-20T20:13:05Z</time>
      </trkpt>
      <trkpt lat="57.746435030054" lon="13.1991539499">
        <ele>322.6</ele>
        <time>2019-08-20T20:13:09Z</time>
      </trkpt>
      <trkpt lat="57.746307206079" lon="13.199215724503">
        <ele>321.4</ele>
        <time>2019-08-20T20:13:14Z</time>
      </trkpt>
      <trkpt lat="57.746170162014" lon="13.19926710555">
        <ele>320.4</ele>
        <time>2019-08-20T20:13:19Z</time>
      </trkpt>
      <trkpt lat="57.746061364952" lon="13.199304321186">
        <ele>319.2</ele>
        <time>2019-08-20T20:13:23Z</time>
      </trkpt>
      <trkpt lat="57.745940162678" lon="13.199353690577">
        <ele>318</ele>
        <time>2019-08-20T20:13:28Z</time>
      </trkpt>
      <trkpt lat="57.7458679107" lon="13.199400042484">
        <ele>317</ele>
        <time>2019-08-20T20:13:31Z</time>
      </trkpt>
      <trkpt lat="57.745763472226" lon="13.19944647821">
        <ele>315.8</ele>
        <time>2019-08-20T20:13:35Z</time>
      </trkpt>
      <trkpt lat="57.745662889426" lon="13.199487800977">
        <ele>314.6</ele>
        <time>2019-08-20T20:13:39Z</time>
      </trkpt>
      <trkpt lat="57.745531293596" lon="13.199550832865">
        <ele>313.2</ele>
        <time>2019-08-20T20:13:44Z</time>
      </trkpt>
      <trkpt lat="57.745439344153" lon="13.199592742365">
        <ele>312.2</ele>
        <time>2019-08-20T20:13:48Z</time>
      </trkpt>
      <trkpt lat="57.745310765807" lon="13.199596933315">
        <ele>311</ele>
        <time>2019-08-20T20:13:53Z</time>
      </trkpt>
      <trkpt lat="57.745209680093" lon="13.199617217513">
        <ele>309.8</ele>
        <time>2019-08-20T20:13:57Z</time>
      </trkpt>
      <trkpt lat="57.745120664315" lon="13.199628868354">
        <ele>308.8</ele>
        <time>2019-08-20T20:14:00Z</time>
      </trkpt>
      <trkpt lat="57.744979261662" lon="13.19953364997">
        <ele>307.6</ele>
        <time>2019-08-20T20:14:06Z</time>
      </trkpt>
      <trkpt lat="57.744804331409" lon="13.199403311425">
        <ele>306.6</ele>
        <time>2019-08-20T20:14:12Z</time>
      </trkpt>
      <trkpt lat="57.744690756664" lon="13.199324270108">
        <ele>305.4</ele>
        <time>2019-08-20T20:14:18Z</time>
      </trkpt>
      <trkpt lat="57.744568213286" lon="13.199224190222">
        <ele>304.2</ele>
        <time>2019-08-20T20:14:23Z</time>
      </trkpt>
      <trkpt lat="57.74446226607" lon="13.199131905503">
        <ele>303.2</ele>
        <time>2019-08-20T20:14:28Z</time>
      </trkpt>
      <trkpt lat="57.744347014945" lon="13.199036100386">
        <ele>302.2</ele>
        <time>2019-08-20T20:14:33Z</time>
      </trkpt>
      <trkpt lat="57.744223884834" lon="13.198956807612">
        <ele>301.2</ele>
        <time>2019-08-20T20:14:38Z</time>
      </trkpt>
      <trkpt lat="57.744043590165" lon="13.198924704935">
        <ele>300.6</ele>
        <time>2019-08-20T20:14:44Z</time>
      </trkpt>
      <trkpt lat="57.743854159225" lon="13.198970302471">
        <ele>300.4</ele>
        <time>2019-08-20T20:14:50Z</time>
      </trkpt>
      <trkpt lat="57.743738572824" lon="13.198991676316">
        <ele>300.2</ele>
        <time>2019-08-20T20:14:54Z</time>
      </trkpt>
      <trkpt lat="57.743596499619" lon="13.199015564731">
        <ele>299</ele>
        <time>2019-08-20T20:14:59Z</time>
      </trkpt>
      <trkpt lat="57.743433136388" lon="13.199033585816">
        <ele>298</ele>
        <time>2019-08-20T20:15:05Z</time>
      </trkpt>
      <trkpt lat="57.743073133783" lon="13.198983378235">
        <ele>297.4</ele>
        <time>2019-08-20T20:15:18Z</time>
      </trkpt>
      <trkpt lat="57.742901221014" lon="13.198790259259">
        <ele>297.4</ele>
        <time>2019-08-20T20:15:26Z</time>
      </trkpt>
      <trkpt lat="57.742744060389" lon="13.198564283235">
        <ele>297.6</ele>
        <time>2019-08-20T20:15:34Z</time>
      </trkpt>
      <trkpt lat="57.742691338238" lon="13.1984833979">
        <ele>297</ele>
        <time>2019-08-20T20:15:37Z</time>
      </trkpt>
      <trkpt lat="57.742606848686" lon="13.198388347154">
        <ele>296</ele>
        <time>2019-08-20T20:15:41Z</time>
      </trkpt>
      <trkpt lat="57.742473408838" lon="13.198244094655">
        <ele>295</ele>
        <time>2019-08-20T20:15:47Z</time>
      </trkpt>
      <trkpt lat="57.742342735017" lon="13.19799221856">
        <ele>294.2</ele>
        <time>2019-08-20T20:15:55Z</time>
      </trkpt>
      <trkpt lat="57.742352374202" lon="13.19775081984">
        <ele>293.8</ele>
        <time>2019-08-20T20:16:00Z</time>
      </trkpt>
      <trkpt lat="57.742434600641" lon="13.197397438936">
        <ele>293.4</ele>
        <time>2019-08-20T20:16:07Z</time>
      </trkpt>
      <trkpt lat="57.742439797419" lon="13.197059648366">
        <ele>292.8</ele>
        <time>2019-08-20T20:16:14Z</time>
      </trkpt>
      <trkpt lat="57.742339214619" lon="13.196770640454">
        <ele>292</ele>
        <time>2019-08-20T20:16:21Z</time>
      </trkpt>
      <trkpt lat="57.74218993298" lon="13.196568636664">
        <ele>292</ele>
        <time>2019-08-20T20:16:28Z</time>
      </trkpt>
      <trkpt lat="57.742028916681" lon="13.196417930102">
        <ele>292.4</ele>
        <time>2019-08-20T20:16:34Z</time>
      </trkpt>
      <trkpt lat="57.741863625613" lon="13.196254818328">
        <ele>293.4</ele>
        <time>2019-08-20T20:16:41Z</time>
      </trkpt>
      <trkpt lat="57.741805036132" lon="13.19618759549">
        <ele>293.8</ele>
        <time>2019-08-20T20:16:44Z</time>
      </trkpt>
      <trkpt lat="57.741629770603" lon="13.196027333562">
        <ele>294.4</ele>
        <time>2019-08-20T20:16:52Z</time>
      </trkpt>
      <trkpt lat="57.741478980222" lon="13.195834382224">
        <ele>293.8</ele>
        <time>2019-08-20T20:17:04Z</time>
      </trkpt>
      <trkpt lat="57.74132324452" lon="13.195660709256">
        <ele>292.8</ele>
        <time>2019-08-20T20:17:17Z</time>
      </trkpt>
      <trkpt lat="57.741309498204" lon="13.195649896605">
        <ele>292.8</ele>
        <time>2019-08-20T20:17:18Z</time>
      </trkpt>
      <trkpt lat="57.741210424146" lon="13.195512098169">
        <ele>291.6</ele>
        <time>2019-08-20T20:17:27Z</time>
      </trkpt>
      <trkpt lat="57.741103219645" lon="13.195321074668">
        <ele>290.6</ele>
        <time>2019-08-20T20:17:37Z</time>
      </trkpt>
      <trkpt lat="57.740955530567" lon="13.195089818047">
        <ele>289.6</ele>
        <time>2019-08-20T20:17:49Z</time>
      </trkpt>
      <trkpt lat="57.74094354445" lon="13.195069869125">
        <ele>289.6</ele>
        <time>2019-08-20T20:17:50Z</time>
      </trkpt>
      <trkpt lat="57.74080859586" lon="13.194808605302">
        <ele>289.6</ele>
        <time>2019-08-20T20:18:01Z</time>
      </trkpt>
      <trkpt lat="57.74064933976" lon="13.194650103573">
        <ele>289.4</ele>
        <time>2019-08-20T20:18:08Z</time>
      </trkpt>
      <trkpt lat="57.740503662338" lon="13.19442152916">
        <ele>288.8</ele>
        <time>2019-08-20T20:18:16Z</time>
      </trkpt>
      <trkpt lat="57.740357565821" lon="13.194200163181">
        <ele>289.2</ele>
        <time>2019-08-20T20:18:23Z</time>
      </trkpt>
      <trkpt lat="57.740193615857" lon="13.193980054487">
        <ele>288.8</ele>
        <time>2019-08-20T20:18:30Z</time>
      </trkpt>
      <trkpt lat="57.740147012493" lon="13.193923309024">
        <ele>288.6</ele>
        <time>2019-08-20T20:18:32Z</time>
      </trkpt>
      <trkpt lat="57.740050788281" lon="13.193788779529">
        <ele>287.4</ele>
        <time>2019-08-20T20:18:37Z</time>
      </trkpt>
      <trkpt lat="57.739949954024" lon="13.193507399146">
        <ele>286.4</ele>
        <time>2019-08-20T20:18:44Z</time>
      </trkpt>
      <trkpt lat="57.739941991219" lon="13.193455263728">
        <ele>286.4</ele>
        <time>2019-08-20T20:18:45Z</time>
      </trkpt>
      <trkpt lat="57.739914414768" lon="13.193098697702">
        <ele>285.8</ele>
        <time>2019-08-20T20:18:52Z</time>
      </trkpt>
      <trkpt lat="57.739767815337" lon="13.192859059181">
        <ele>285</ele>
        <time>2019-08-20T20:19:00Z</time>
      </trkpt>
      <trkpt lat="57.739615683852" lon="13.192798038949">
        <ele>284</ele>
        <time>2019-08-20T20:19:06Z</time>
      </trkpt>
      <trkpt lat="57.739486351135" lon="13.192803738641">
        <ele>282.8</ele>
        <time>2019-08-20T20:19:11Z</time>
      </trkpt>
      <trkpt lat="57.739382331756" lon="13.192824944848">
        <ele>281.8</ele>
        <time>2019-08-20T20:19:15Z</time>
      </trkpt>
      <trkpt lat="57.739254256324" lon="13.192849252358">
        <ele>280.6</ele>
        <time>2019-08-20T20:19:20Z</time>
      </trkpt>
      <trkpt lat="57.739147722375" lon="13.192874062782">
        <ele>279.6</ele>
        <time>2019-08-20T20:19:24Z</time>
      </trkpt>
      <trkpt lat="57.739041858978" lon="13.192887725279">
        <ele>278.4</ele>
        <time>2019-08-20T20:19:28Z</time>
      </trkpt>
      <trkpt lat="57.738936666133" lon="13.192899543758">
        <ele>277.2</ele>
        <time>2019-08-20T20:19:32Z</time>
      </trkpt>
      <trkpt lat="57.738758215482" lon="13.19286333395">
        <ele>276.2</ele>
        <time>2019-08-20T20:19:39Z</time>
      </trkpt>
      <trkpt lat="57.738733991791" lon="13.1928507611">
        <ele>276</ele>
        <time>2019-08-20T20:19:40Z</time>
      </trkpt>
      <trkpt lat="57.738555122045" lon="13.192689493344">
        <ele>276.2</ele>
        <time>2019-08-20T20:19:48Z</time>
      </trkpt>
      <trkpt lat="57.738389747158" lon="13.19253895442">
        <ele>276.6</ele>
        <time>2019-08-20T20:19:55Z</time>
      </trkpt>
      <trkpt lat="57.738207105557" lon="13.192434599765">
        <ele>275.8</ele>
        <time>2019-08-20T20:20:03Z</time>
      </trkpt>
      <trkpt lat="57.738024212499" lon="13.192434264489">
        <ele>275</ele>
        <time>2019-08-20T20:20:11Z</time>
      </trkpt>
      <trkpt lat="57.737890102099" lon="13.19247106103">
        <ele>273.8</ele>
        <time>2019-08-20T20:20:16Z</time>
      </trkpt>
      <trkpt lat="57.737693211268" lon="13.192560831179">
        <ele>273</ele>
        <time>2019-08-20T20:20:24Z</time>
      </trkpt>
      <trkpt lat="57.737509312382" lon="13.192662419807">
        <ele>273.4</ele>
        <time>2019-08-20T20:20:31Z</time>
      </trkpt>
      <trkpt lat="57.737339159812" lon="13.192756716182">
        <ele>275.2</ele>
        <time>2019-08-20T20:20:39Z</time>
      </trkpt>
      <trkpt lat="57.737238828469" lon="13.192795775836">
        <ele>276.2</ele>
        <time>2019-08-20T20:20:44Z</time>
      </trkpt>
      <trkpt lat="57.737108322286" lon="13.192868866004">
        <ele>277.2</ele>
        <time>2019-08-20T20:20:50Z</time>
      </trkpt>
      <trkpt lat="57.736924591038" lon="13.193002222033">
        <ele>277.6</ele>
        <time>2019-08-20T20:20:58Z</time>
      </trkpt>
      <trkpt lat="57.736732394071" lon="13.193085789576">
        <ele>277</ele>
        <time>2019-08-20T20:21:06Z</time>
      </trkpt>
      <trkpt lat="57.736535587059" lon="13.19307371964">
        <ele>276.4</ele>
        <time>2019-08-20T20:21:14Z</time>
      </trkpt>
      <trkpt lat="57.736334170002" lon="13.19303683928">
        <ele>276.8</ele>
        <time>2019-08-20T20:21:22Z</time>
      </trkpt>
      <trkpt lat="57.736138284999" lon="13.192972382469">
        <ele>276.6</ele>
        <time>2019-08-20T20:21:30Z</time>
      </trkpt>
      <trkpt lat="57.736059327501" lon="13.192929215684">
        <ele>276.2</ele>
        <time>2019-08-20T20:21:34Z</time>
      </trkpt>
      <trkpt lat="57.73604683847" lon="13.192925862924">
        <ele>276</ele>
        <time>2019-08-20T20:21:35Z</time>
      </trkpt>
      <trkpt lat="57.735984896229" lon="13.19288847965">
        <ele>275.6</ele>
        <time>2019-08-20T20:21:40Z</time>
      </trkpt>
      <trkpt lat="57.735851372562" lon="13.19278622047">
        <ele>275.2</ele>
        <time>2019-08-20T20:21:52Z</time>
      </trkpt>
      <trkpt lat="57.735732014306" lon="13.192726038428">
        <ele>273.6</ele>
        <time>2019-08-20T20:22:02Z</time>
      </trkpt>
      <trkpt lat="57.735669820608" lon="13.192692594647">
        <ele>272.4</ele>
        <time>2019-08-20T20:22:07Z</time>
      </trkpt>
      <trkpt lat="57.735501512056" lon="13.192547923053">
        <ele>272.2</ele>
        <time>2019-08-20T20:22:22Z</time>
      </trkpt>
      <trkpt lat="57.735325743613" lon="13.192448513719">
        <ele>271.2</ele>
        <time>2019-08-20T20:22:35Z</time>
      </trkpt>
      <trkpt lat="57.735256341481" lon="13.192410040798">
        <ele>270.6</ele>
        <time>2019-08-20T20:22:40Z</time>
      </trkpt>
      <trkpt lat="57.735227172469" lon="13.19235119986">
        <ele>270.2</ele>
        <time>2019-08-20T20:22:42Z</time>
      </trkpt>
      <trkpt lat="57.7352145158" lon="13.19226151353">
        <ele>269.4</ele>
        <time>2019-08-20T20:22:44Z</time>
      </trkpt>
      <trkpt lat="57.73521870675" lon="13.192213317605">
        <ele>269</ele>
        <time>2019-08-20T20:22:45Z</time>
      </trkpt>
      <trkpt lat="57.735249300685" lon="13.192032939117">
        <ele>267.8</ele>
        <time>2019-08-20T20:22:49Z</time>
      </trkpt>
      <trkpt lat="57.735273775833" lon="13.191893883396">
        <ele>266.8</ele>
        <time>2019-08-20T20:22:52Z</time>
      </trkpt>
      <trkpt lat="57.735294814402" lon="13.191750636725">
        <ele>265.6</ele>
        <time>2019-08-20T20:22:55Z</time>
      </trkpt>
      <trkpt lat="57.73535030258" lon="13.191527762004">
        <ele>264.6</ele>
        <time>2019-08-20T20:23:00Z</time>
      </trkpt>
      <trkpt lat="57.735453148493" lon="13.1912246725">
        <ele>263.8</ele>
        <time>2019-08-20T20:23:08Z</time>
      </trkpt>
      <trkpt lat="57.735469996112" lon="13.191135656722">
        <ele>263.4</ele>
        <time>2019-08-20T20:23:10Z</time>
      </trkpt>
      <trkpt lat="57.735542918642" lon="13.190823095671">
        <ele>263.6</ele>
        <time>2019-08-20T20:23:17Z</time>
      </trkpt>
      <trkpt lat="57.735567058514" lon="13.190748077666">
        <ele>263.8</ele>
        <time>2019-08-20T20:23:19Z</time>
      </trkpt>
      <trkpt lat="57.735624055434" lon="13.190617739121">
        <ele>264.6</ele>
        <time>2019-08-20T20:23:23Z</time>
      </trkpt>
      <trkpt lat="57.735704689312" lon="13.190296628532">
        <ele>264.4</ele>
        <time>2019-08-20T20:23:31Z</time>
      </trkpt>
      <trkpt lat="57.735757160006" lon="13.190077525666">
        <ele>263.4</ele>
        <time>2019-08-20T20:23:36Z</time>
      </trkpt>
      <trkpt lat="57.735826478319" lon="13.189761025122">
        <ele>263</ele>
        <time>2019-08-20T20:23:44Z</time>
      </trkpt>
      <trkpt lat="57.735866962896" lon="13.189560446255">
        <ele>262.4</ele>
        <time>2019-08-20T20:23:49Z</time>
      </trkpt>
      <trkpt lat="57.735884313429" lon="13.189410326426">
        <ele>261.2</ele>
        <time>2019-08-20T20:23:53Z</time>
      </trkpt>
      <trkpt lat="57.735921696703" lon="13.189165072032">
        <ele>260.2</ele>
        <time>2019-08-20T20:24:00Z</time>
      </trkpt>
      <trkpt lat="57.736003587866" lon="13.188951417401">
        <ele>259</ele>
        <time>2019-08-20T20:24:07Z</time>
      </trkpt>
      <trkpt lat="57.736050861782" lon="13.188824766892">
        <ele>257.8</ele>
        <time>2019-08-20T20:24:12Z</time>
      </trkpt>
      <trkpt lat="57.736141302483" lon="13.18852402432">
        <ele>257.2</ele>
        <time>2019-08-20T20:24:21Z</time>
      </trkpt>
      <trkpt lat="57.736265689879" lon="13.188288828206">
        <ele>257</ele>
        <time>2019-08-20T20:24:31Z</time>
      </trkpt>
      <trkpt lat="57.7364215094" lon="13.188106857157">
        <ele>258</ele>
        <time>2019-08-20T20:24:40Z</time>
      </trkpt>
      <trkpt lat="57.736556960904" lon="13.187845425696">
        <ele>258.4</ele>
        <time>2019-08-20T20:24:50Z</time>
      </trkpt>
      <trkpt lat="57.736710768769" lon="13.18762464645">
        <ele>257.6</ele>
        <time>2019-08-20T20:24:59Z</time>
      </trkpt>
      <trkpt lat="57.736809423732" lon="13.187451057301">
        <ele>256.6</ele>
        <time>2019-08-20T20:25:05Z</time>
      </trkpt>
      <trkpt lat="57.736889638515" lon="13.187338069289">
        <ele>255.4</ele>
        <time>2019-08-20T20:25:10Z</time>
      </trkpt>
      <trkpt lat="57.736981504139" lon="13.187268750976">
        <ele>254.4</ele>
        <time>2019-08-20T20:25:15Z</time>
      </trkpt>
      <trkpt lat="57.737098180187" lon="13.187203958889">
        <ele>253.4</ele>
        <time>2019-08-20T20:25:20Z</time>
      </trkpt>
      <trkpt lat="57.73719767334" lon="13.187163306674">
        <ele>252</ele>
        <time>2019-08-20T20:25:25Z</time>
      </trkpt>
      <trkpt lat="57.737321641641" lon="13.187142854838">
        <ele>250.8</ele>
        <time>2019-08-20T20:25:31Z</time>
      </trkpt>
      <trkpt lat="57.737425241925" lon="13.187147883978">
        <ele>250</ele>
        <time>2019-08-20T20:25:37Z</time>
      </trkpt>
      <trkpt lat="57.737448795064" lon="13.187166240339">
        <ele>249.8</ele>
        <time>2019-08-20T20:25:38Z</time>
      </trkpt>
      <trkpt lat="57.737643003687" lon="13.187224913639">
        <ele>248.8</ele>
        <time>2019-08-20T20:25:48Z</time>
      </trkpt>
      <trkpt lat="57.73783469774" lon="13.18724578457">
        <ele>249</ele>
        <time>2019-08-20T20:25:56Z</time>
      </trkpt>
      <trkpt lat="57.737911978858" lon="13.187254417927">
        <ele>248.8</ele>
        <time>2019-08-20T20:25:59Z</time>
      </trkpt>
      <trkpt lat="57.738098057038" lon="13.187210412952">
        <ele>248.6</ele>
        <time>2019-08-20T20:26:06Z</time>
      </trkpt>
      <trkpt lat="57.738248093048" lon="13.187229356046">
        <ele>247.8</ele>
        <time>2019-08-20T20:26:13Z</time>
      </trkpt>
      <trkpt lat="57.738316405533" lon="13.187255339936">
        <ele>246.8</ele>
        <time>2019-08-20T20:26:16Z</time>
      </trkpt>
      <trkpt lat="57.738398883429" lon="13.187342930791">
        <ele>245.6</ele>
        <time>2019-08-20T20:26:20Z</time>
      </trkpt>
      <trkpt lat="57.738506255568" lon="13.187487937661">
        <ele>244.4</ele>
        <time>2019-08-20T20:26:25Z</time>
      </trkpt>
      <trkpt lat="57.738610526404" lon="13.187656162394">
        <ele>243.2</ele>
        <time>2019-08-20T20:26:30Z</time>
      </trkpt>
      <trkpt lat="57.738777745309" lon="13.187851125388">
        <ele>242.4</ele>
        <time>2019-08-20T20:26:36Z</time>
      </trkpt>
      <trkpt lat="57.738829042537" lon="13.187908960498">
        <ele>242.2</ele>
        <time>2019-08-20T20:26:38Z</time>
      </trkpt>
      <trkpt lat="57.738993411596" lon="13.188126303165">
        <ele>242.2</ele>
        <time>2019-08-20T20:26:45Z</time>
      </trkpt>
      <trkpt lat="57.739159289397" lon="13.188256557891">
        <ele>241.6</ele>
        <time>2019-08-20T20:26:53Z</time>
      </trkpt>
      <trkpt lat="57.739215448127" lon="13.188273908424">
        <ele>241</ele>
        <time>2019-08-20T20:26:56Z</time>
      </trkpt>
      <trkpt lat="57.739343104464" lon="13.188207523776">
        <ele>239.8</ele>
        <time>2019-08-20T20:27:01Z</time>
      </trkpt>
      <trkpt lat="57.739436646468" lon="13.188111886297">
        <ele>238.6</ele>
        <time>2019-08-20T20:27:05Z</time>
      </trkpt>
      <trkpt lat="57.739606128486" lon="13.187923628823">
        <ele>237.6</ele>
        <time>2019-08-20T20:27:12Z</time>
      </trkpt>
      <trkpt lat="57.739727749855" lon="13.187693210392">
        <ele>236.6</ele>
        <time>2019-08-20T20:27:19Z</time>
      </trkpt>
      <trkpt lat="57.739803270774" lon="13.187488775851">
        <ele>235.4</ele>
        <time>2019-08-20T20:27:24Z</time>
      </trkpt>
      <trkpt lat="57.739894633484" lon="13.187323233326">
        <ele>234.4</ele>
        <time>2019-08-20T20:27:29Z</time>
      </trkpt>
      <trkpt lat="57.739968478023" lon="13.187213514255">
        <ele>233.2</ele>
        <time>2019-08-20T20:27:33Z</time>
      </trkpt>
      <trkpt lat="57.740020361984" lon="13.187132209825">
        <ele>232</ele>
        <time>2019-08-20T20:27:36Z</time>
      </trkpt>
      <trkpt lat="57.740106695554" lon="13.187046043893">
        <ele>231</ele>
        <time>2019-08-20T20:27:40Z</time>
      </trkpt>
      <trkpt lat="57.740197806807" lon="13.186977479951">
        <ele>229.8</ele>
        <time>2019-08-20T20:27:44Z</time>
      </trkpt>
      <trkpt lat="57.740351698491" lon="13.186807159743">
        <ele>228.8</ele>
        <time>2019-08-20T20:27:52Z</time>
      </trkpt>
      <trkpt lat="57.74052947859" lon="13.18676214894">
        <ele>227.6</ele>
        <time>2019-08-20T20:28:00Z</time>
      </trkpt>
      <trkpt lat="57.740678173496" lon="13.186744044036">
        <ele>226.6</ele>
        <time>2019-08-20T20:28:06Z</time>
      </trkpt>
      <trkpt lat="57.740795520096" lon="13.186756868343">
        <ele>225.6</ele>
        <time>2019-08-20T20:28:11Z</time>
      </trkpt>
      <trkpt lat="57.74088654753" lon="13.186849823614">
        <ele>225.8</ele>
        <time>2019-08-20T20:28:18Z</time>
      </trkpt>
      <trkpt lat="57.740926696831" lon="13.186859462799">
        <ele>225.8</ele>
        <time>2019-08-20T20:28:20Z</time>
      </trkpt>
      <trkpt lat="57.740989141986" lon="13.186847309044">
        <ele>225.2</ele>
        <time>2019-08-20T20:28:23Z</time>
      </trkpt>
      <trkpt lat="57.741037924644" lon="13.186788468106">
        <ele>224.4</ele>
        <time>2019-08-20T20:28:26Z</time>
      </trkpt>
      <trkpt lat="57.741103387283" lon="13.186670115678">
        <ele>223.2</ele>
        <time>2019-08-20T20:28:31Z</time>
      </trkpt>
      <trkpt lat="57.741146973163" lon="13.186582860099">
        <ele>222.2</ele>
        <time>2019-08-20T20:28:35Z</time>
      </trkpt>
      <trkpt lat="57.741178572926" lon="13.186506920085">
        <ele>221.4</ele>
        <time>2019-08-20T20:28:38Z</time>
      </trkpt>
      <trkpt lat="57.741194330898" lon="13.186480852376">
        <ele>221</ele>
        <time>2019-08-20T20:28:39Z</time>
      </trkpt>
      <trkpt lat="57.741256273139" lon="13.186370881848">
        <ele>220</ele>
        <time>2019-08-20T20:28:43Z</time>
      </trkpt>
      <trkpt lat="57.741323915072" lon="13.186264180261">
        <ele>218.8</ele>
        <time>2019-08-20T20:28:47Z</time>
      </trkpt>
      <trkpt lat="57.741400860914" lon="13.186108025464">
        <ele>217.6</ele>
        <time>2019-08-20T20:28:53Z</time>
      </trkpt>
      <trkpt lat="57.741566738715" lon="13.185984727715">
        <ele>216.6</ele>
        <time>2019-08-20T20:29:01Z</time>
      </trkpt>
      <trkpt lat="57.741708560463" lon="13.185910464081">
        <ele>215.4</ele>
        <time>2019-08-20T20:29:08Z</time>
      </trkpt>
      <trkpt lat="57.741866810735" lon="13.185738802769">
        <ele>214.4</ele>
        <time>2019-08-20T20:29:18Z</time>
      </trkpt>
      <trkpt lat="57.7419703272" lon="13.185647859154">
        <ele>213.2</ele>
        <time>2019-08-20T20:29:24Z</time>
      </trkpt>
      <trkpt lat="57.742127487825" lon="13.185481981353">
        <ele>212.2</ele>
        <time>2019-08-20T20:29:31Z</time>
      </trkpt>
      <trkpt lat="57.742256736723" lon="13.185407298624">
        <ele>211</ele>
        <time>2019-08-20T20:29:36Z</time>
      </trkpt>
      <trkpt lat="57.742391601494" lon="13.185315600638">
        <ele>210</ele>
        <time>2019-08-20T20:29:40Z</time>
      </trkpt>
      <trkpt lat="57.742549348852" lon="13.185199511323">
        <ele>209</ele>
        <time>2019-08-20T20:29:46Z</time>
      </trkpt>
      <trkpt lat="57.742726206942" lon="13.185030951314">
        <ele>208</ele>
        <time>2019-08-20T20:29:54Z</time>
      </trkpt>
      <trkpt lat="57.742751352642" lon="13.185019971025">
        <ele>207.8</ele>
        <time>2019-08-20T20:29:55Z</time>
      </trkpt>
      <trkpt lat="57.742931144397" lon="13.184853087396">
        <ele>207.8</ele>
        <time>2019-08-20T20:30:03Z</time>
      </trkpt>
      <trkpt lat="57.743095932551" lon="13.184681006989">
        <ele>208</ele>
        <time>2019-08-20T20:30:21Z</time>
      </trkpt>
      <trkpt lat="57.743112361075" lon="13.184686455224">
        <ele>206.6</ele>
        <time>2019-08-20T20:30:35Z</time>
      </trkpt>
      <trkpt lat="57.743065422435" lon="13.184713696399">
        <ele>205.4</ele>
        <time>2019-08-20T20:30:42Z</time>
      </trkpt>
      <trkpt lat="57.74305494506" lon="13.184688885975">
        <ele>205.4</ele>
        <time>2019-08-20T20:30:43Z</time>
      </trkpt>
      <trkpt lat="57.743013957569" lon="13.184567935158">
        <ele>205.4</ele>
        <time>2019-08-20T20:30:47Z</time>
      </trkpt>
      <trkpt lat="57.743107834849" lon="13.184228971122">
        <ele>205.2</ele>
        <time>2019-08-20T20:30:55Z</time>
      </trkpt>
      <trkpt lat="57.74326281618" lon="13.184057896543">
        <ele>204.8</ele>
        <time>2019-08-20T20:31:02Z</time>
      </trkpt>
      <trkpt lat="57.743377732029" lon="13.184055549611">
        <ele>204.2</ele>
        <time>2019-08-20T20:31:07Z</time>
      </trkpt>
      <trkpt lat="57.74347404006" lon="13.18416124537">
        <ele>203.2</ele>
        <time>2019-08-20T20:31:12Z</time>
      </trkpt>
      <trkpt lat="57.743583340036" lon="13.184185133785">
        <ele>202</ele>
        <time>2019-08-20T20:31:17Z</time>
      </trkpt>
      <trkpt lat="57.743755168986" lon="13.184043312037">
        <ele>201.8</ele>
        <time>2019-08-20T20:31:24Z</time>
      </trkpt>
      <trkpt lat="57.743885507531" lon="13.184001570175">
        <ele>201</ele>
        <time>2019-08-20T20:31:30Z</time>
      </trkpt>
      <trkpt lat="57.744025904356" lon="13.183971646792">
        <ele>200</ele>
        <time>2019-08-20T20:31:37Z</time>
      </trkpt>
      <trkpt lat="57.744034202437" lon="13.183997043949">
        <ele>200</ele>
        <time>2019-08-20T20:31:38Z</time>
      </trkpt>
      <trkpt lat="57.744129839916" lon="13.184282615282">
        <ele>199.8</ele>
        <time>2019-08-20T20:31:46Z</time>
      </trkpt>
      <trkpt lat="57.744244671946" lon="13.184585620967">
        <ele>199.6</ele>
        <time>2019-08-20T20:31:54Z</time>
      </trkpt>
      <trkpt lat="57.744373920844" lon="13.184830288628">
        <ele>200</ele>
        <time>2019-08-20T20:32:02Z</time>
      </trkpt>
      <trkpt lat="57.744482131173" lon="13.185096833048">
        <ele>200</ele>
        <time>2019-08-20T20:32:11Z</time>
      </trkpt>
      <trkpt lat="57.744458829491" lon="13.185314008077">
        <ele>198.8</ele>
        <time>2019-08-20T20:32:18Z</time>
      </trkpt>
      <trkpt lat="57.744374172301" lon="13.185610308242">
        <ele>198.2</ele>
        <time>2019-08-20T20:32:26Z</time>
      </trkpt>
      <trkpt lat="57.744368472609" lon="13.185700329848">
        <ele>197.6</ele>
        <time>2019-08-20T20:32:29Z</time>
      </trkpt>
      <trkpt lat="57.744369981351" lon="13.18570686773">
        <ele>197.6</ele>
        <time>2019-08-20T20:32:30Z</time>
      </trkpt>
      <trkpt lat="57.744372160645" lon="13.185707622101">
        <ele>197.2</ele>
        <time>2019-08-20T20:32:32Z</time>
      </trkpt>
      <trkpt lat="57.744379201441" lon="13.185751627076">
        <ele>194.6</ele>
        <time>2019-08-20T20:32:48Z</time>
      </trkpt>
      <trkpt lat="57.744384482038" lon="13.185842738329">
        <ele>194.4</ele>
        <time>2019-08-20T20:32:51Z</time>
      </trkpt>
      <trkpt lat="57.74440526915" lon="13.186221097295">
        <ele>195</ele>
        <time>2019-08-20T20:32:58Z</time>
      </trkpt>
      <trkpt lat="57.744431672135" lon="13.186568946145">
        <ele>193.8</ele>
        <time>2019-08-20T20:33:05Z</time>
      </trkpt>
      <trkpt lat="57.744440892225" lon="13.186818475308">
        <ele>193.6</ele>
        <time>2019-08-20T20:33:10Z</time>
      </trkpt>
      <trkpt lat="57.744438880569" lon="13.187047552635">
        <ele>192.2</ele>
        <time>2019-08-20T20:33:15Z</time>
      </trkpt>
      <trkpt lat="57.744456734016" lon="13.18721058059">
        <ele>191.2</ele>
        <time>2019-08-20T20:33:19Z</time>
      </trkpt>
      <trkpt lat="57.744515574954" lon="13.187512664266">
        <ele>190</ele>
        <time>2019-08-20T20:33:27Z</time>
      </trkpt>
      <trkpt lat="57.744553880237" lon="13.187619784948">
        <ele>189.2</ele>
        <time>2019-08-20T20:33:30Z</time>
      </trkpt>
      <trkpt lat="57.744584055077" lon="13.187720619205">
        <ele>188</ele>
        <time>2019-08-20T20:33:33Z</time>
      </trkpt>
      <trkpt lat="57.744616995944" lon="13.187830505914">
        <ele>186.6</ele>
        <time>2019-08-20T20:33:37Z</time>
      </trkpt>
      <trkpt lat="57.744642896015" lon="13.187894627449">
        <ele>185.2</ele>
        <time>2019-08-20T20:33:40Z</time>
      </trkpt>
      <trkpt lat="57.74466678443" lon="13.187937375139">
        <ele>184.2</ele>
        <time>2019-08-20T20:33:42Z</time>
      </trkpt>
      <trkpt lat="57.744705257351" lon="13.187981799209">
        <ele>182.8</ele>
        <time>2019-08-20T20:33:45Z</time>
      </trkpt>
      <trkpt lat="57.744750184335" lon="13.188023373433">
        <ele>181.6</ele>
        <time>2019-08-20T20:33:48Z</time>
      </trkpt>
      <trkpt lat="57.744795530414" lon="13.188068384236">
        <ele>180.6</ele>
        <time>2019-08-20T20:33:51Z</time>
      </trkpt>
      <trkpt lat="57.744839535389" lon="13.188122782767">
        <ele>179.4</ele>
        <time>2019-08-20T20:33:54Z</time>
      </trkpt>
      <trkpt lat="57.744864681089" lon="13.18816108805">
        <ele>178.2</ele>
        <time>2019-08-20T20:33:56Z</time>
      </trkpt>
      <trkpt lat="57.744885887296" lon="13.188203668102">
        <ele>177</ele>
        <time>2019-08-20T20:33:58Z</time>
      </trkpt>
      <trkpt lat="57.744910530082" lon="13.188237195702">
        <ele>176</ele>
        <time>2019-08-20T20:34:00Z</time>
      </trkpt>
      <trkpt lat="57.744968616649" lon="13.188251864027">
        <ele>174.8</ele>
        <time>2019-08-20T20:34:03Z</time>
      </trkpt>
      <trkpt lat="57.745034833659" lon="13.188241805747">
        <ele>173.8</ele>
        <time>2019-08-20T20:34:06Z</time>
      </trkpt>
      <trkpt lat="57.745136087011" lon="13.188209535432">
        <ele>172.6</ele>
        <time>2019-08-20T20:34:10Z</time>
      </trkpt>
      <trkpt lat="57.745211188835" lon="13.188175756375">
        <ele>171.4</ele>
        <time>2019-08-20T20:34:13Z</time>
      </trkpt>
      <trkpt lat="57.745269023945" lon="13.188131499943">
        <ele>170.4</ele>
        <time>2019-08-20T20:34:16Z</time>
      </trkpt>
      <trkpt lat="57.745332474928" lon="13.188100570732">
        <ele>169.2</ele>
        <time>2019-08-20T20:34:20Z</time>
      </trkpt>
      <trkpt lat="57.745410594236" lon="13.188103672035">
        <ele>167.8</ele>
        <time>2019-08-20T20:34:24Z</time>
      </trkpt>
      <trkpt lat="57.745493575046" lon="13.18816360262">
        <ele>166.8</ele>
        <time>2019-08-20T20:34:29Z</time>
      </trkpt>
      <trkpt lat="57.74562818836" lon="13.188359571442">
        <ele>165.6</ele>
        <time>2019-08-20T20:34:37Z</time>
      </trkpt>
      <trkpt lat="57.74578828265" lon="13.18855587554">
        <ele>165.2</ele>
        <time>2019-08-20T20:34:44Z</time>
      </trkpt>
      <trkpt lat="57.745849302882" lon="13.188639107807">
        <ele>164.6</ele>
        <time>2019-08-20T20:34:50Z</time>
      </trkpt>
      <trkpt lat="57.745974947563" lon="13.188885703305">
        <ele>163.8</ele>
        <time>2019-08-20T20:35:00Z</time>
      </trkpt>
      <trkpt lat="57.746020796556" lon="13.18897077959">
        <ele>163.4</ele>
        <time>2019-08-20T20:35:04Z</time>
      </trkpt>
      <trkpt lat="57.746169323824" lon="13.189161300177">
        <ele>163</ele>
        <time>2019-08-20T20:35:12Z</time>
      </trkpt>
      <trkpt lat="57.746268146425" lon="13.189375122446">
        <ele>162.4</ele>
        <time>2019-08-20T20:35:18Z</time>
      </trkpt>
      <trkpt lat="57.746388845785" lon="13.189476711074">
        <ele>161.6</ele>
        <time>2019-08-20T20:35:25Z</time>
      </trkpt>
      <trkpt lat="57.746399071703" lon="13.189475453789">
        <ele>161.4</ele>
        <time>2019-08-20T20:35:26Z</time>
      </trkpt>
      <trkpt lat="57.746418517711" lon="13.189452487383">
        <ele>161.2</ele>
        <time>2019-08-20T20:35:29Z</time>
      </trkpt>
      <trkpt lat="57.74646051103" lon="13.189394736092">
        <ele>161.2</ele>
        <time>2019-08-20T20:35:35Z</time>
      </trkpt>
      <trkpt lat="57.746479537943" lon="13.189371099134">
        <ele>161.2</ele>
        <time>2019-08-20T20:35:37Z</time>
      </trkpt>
      <trkpt lat="57.74656947573" lon="13.189227684825">
        <ele>160.4</ele>
        <time>2019-08-20T20:35:48Z</time>
      </trkpt>
      <trkpt lat="57.746599147656" lon="13.189156187218">
        <ele>160.2</ele>
        <time>2019-08-20T20:35:53Z</time>
      </trkpt>
      <trkpt lat="57.74672705545" lon="13.188890732445">
        <ele>160</ele>
        <time>2019-08-20T20:36:10Z</time>
      </trkpt>
      <trkpt lat="57.746851023751" lon="13.188632402287">
        <ele>159.6</ele>
        <time>2019-08-20T20:36:25Z</time>
      </trkpt>
      <trkpt lat="57.746906260472" lon="13.188309028585">
        <ele>160.2</ele>
        <time>2019-08-20T20:36:39Z</time>
      </trkpt>
      <trkpt lat="57.746942051185" lon="13.188155472177">
        <ele>160.4</ele>
        <time>2019-08-20T20:36:46Z</time>
      </trkpt>
      <trkpt lat="57.746937273502" lon="13.188050530789">
        <ele>160.2</ele>
        <time>2019-08-20T20:36:50Z</time>
      </trkpt>
      <trkpt lat="57.746989660377" lon="13.187730006933">
        <ele>160</ele>
        <time>2019-08-20T20:36:58Z</time>
      </trkpt>
      <trkpt lat="57.747090578453" lon="13.187450219111">
        <ele>159.6</ele>
        <time>2019-08-20T20:37:05Z</time>
      </trkpt>
      <trkpt lat="57.747146737183" lon="13.187318204186">
        <ele>159.4</ele>
        <time>2019-08-20T20:37:09Z</time>
      </trkpt>
      <trkpt lat="57.747248912544" lon="13.186991310086">
        <ele>159.8</ele>
        <time>2019-08-20T20:37:17Z</time>
      </trkpt>
      <trkpt lat="57.747345472032" lon="13.186697943586">
        <ele>159.6</ele>
        <time>2019-08-20T20:37:24Z</time>
      </trkpt>
      <trkpt lat="57.747379837822" lon="13.186640443752">
        <ele>159.8</ele>
        <time>2019-08-20T20:37:26Z</time>
      </trkpt>
      <trkpt lat="57.747399367649" lon="13.186629212006">
        <ele>159.6</ele>
        <time>2019-08-20T20:37:28Z</time>
      </trkpt>
      <trkpt lat="57.747271962769" lon="13.186411198787">
        <ele>160</ele>
        <time>2019-08-20T20:37:37Z</time>
      </trkpt>
      <trkpt lat="57.747241955567" lon="13.186032169269">
        <ele>159.8</ele>
        <time>2019-08-20T20:37:45Z</time>
      </trkpt>
      <trkpt lat="57.747236004418" lon="13.185658504167">
        <ele>159.8</ele>
        <time>2019-08-20T20:37:53Z</time>
      </trkpt>
      <trkpt lat="57.747232735477" lon="13.185573176425">
        <ele>160.4</ele>
        <time>2019-08-20T20:37:55Z</time>
      </trkpt>
      <trkpt lat="57.747225862319" lon="13.185370921178">
        <ele>161.6</ele>
        <time>2019-08-20T20:38:00Z</time>
      </trkpt>
      <trkpt lat="57.747257797358" lon="13.185055426462">
        <ele>162.6</ele>
        <time>2019-08-20T20:38:09Z</time>
      </trkpt>
      <trkpt lat="57.747255785702" lon="13.185050816417">
        <ele>162.4</ele>
        <time>2019-08-20T20:38:11Z</time>
      </trkpt>
      <trkpt lat="57.747258048815" lon="13.185048804761">
        <ele>162.6</ele>
        <time>2019-08-20T20:38:13Z</time>
      </trkpt>
      <trkpt lat="57.747339856159" lon="13.184769016939">
        <ele>158.2</ele>
        <time>2019-08-20T20:39:30Z</time>
      </trkpt>
      <trkpt lat="57.747394422328" lon="13.184512949894">
        <ele>158.4</ele>
        <time>2019-08-20T20:39:38Z</time>
      </trkpt>
      <trkpt lat="57.747574297902" lon="13.184462742313">
        <ele>158.2</ele>
        <time>2019-08-20T20:39:45Z</time>
      </trkpt>
      <trkpt lat="57.747767165421" lon="13.184515380645">
        <ele>157.8</ele>
        <time>2019-08-20T20:39:52Z</time>
      </trkpt>
      <trkpt lat="57.747959781483" lon="13.184578747809">
        <ele>157.4</ele>
        <time>2019-08-20T20:39:59Z</time>
      </trkpt>
      <trkpt lat="57.748036643506" lon="13.18458453132">
        <ele>157.2</ele>
        <time>2019-08-20T20:40:02Z</time>
      </trkpt>
      <trkpt lat="57.748195145235" lon="13.184619902938">
        <ele>156</ele>
        <time>2019-08-20T20:40:10Z</time>
      </trkpt>
      <trkpt lat="57.74824920849" lon="13.184642953163">
        <ele>154.8</ele>
        <time>2019-08-20T20:40:13Z</time>
      </trkpt>
      <trkpt lat="57.74830285265" lon="13.184654604004">
        <ele>153.4</ele>
        <time>2019-08-20T20:40:16Z</time>
      </trkpt>
      <trkpt lat="57.748350126566" lon="13.184672457451">
        <ele>152</ele>
        <time>2019-08-20T20:40:19Z</time>
      </trkpt>
      <trkpt lat="57.748388599487" lon="13.184695842952">
        <ele>150.6</ele>
        <time>2019-08-20T20:40:22Z</time>
      </trkpt>
      <trkpt lat="57.748433945566" lon="13.184717887349">
        <ele>149.6</ele>
        <time>2019-08-20T20:40:25Z</time>
      </trkpt>
      <trkpt lat="57.748494546703" lon="13.184743116868">
        <ele>148.4</ele>
        <time>2019-08-20T20:40:28Z</time>
      </trkpt>
      <trkpt lat="57.748674254639" lon="13.184829785714">
        <ele>147.2</ele>
        <time>2019-08-20T20:40:36Z</time>
      </trkpt>
      <trkpt lat="57.748867205977" lon="13.184897260009">
        <ele>146.8</ele>
        <time>2019-08-20T20:40:44Z</time>
      </trkpt>
      <trkpt lat="57.749052362148" lon="13.184949311608">
        <ele>146.6</ele>
        <time>2019-08-20T20:40:52Z</time>
      </trkpt>
      <trkpt lat="57.749187310738" lon="13.185020893034">
        <ele>146.6</ele>
        <time>2019-08-20T20:40:59Z</time>
      </trkpt>
      <trkpt lat="57.749323013699" lon="13.184791648069">
        <ele>146.4</ele>
        <time>2019-08-20T20:41:07Z</time>
      </trkpt>
      <trkpt lat="57.749363163" lon="13.184734315873">
        <ele>146.2</ele>
        <time>2019-08-20T20:41:09Z</time>
      </trkpt>
      <trkpt lat="57.749542451841" lon="13.184751414949">
        <ele>146.4</ele>
        <time>2019-08-20T20:41:17Z</time>
      </trkpt>
      <trkpt lat="57.749700199199" lon="13.184943528097">
        <ele>147</ele>
        <time>2019-08-20T20:41:25Z</time>
      </trkpt>
      <trkpt lat="57.749862891878" lon="13.185127762259">
        <ele>147.4</ele>
        <time>2019-08-20T20:41:33Z</time>
      </trkpt>
      <trkpt lat="57.750002953427" lon="13.18529615463">
        <ele>148</ele>
        <time>2019-08-20T20:41:41Z</time>
      </trkpt>
      <trkpt lat="57.750162712441" lon="13.185450716866">
        <ele>148.4</ele>
        <time>2019-08-20T20:41:57Z</time>
      </trkpt>
      <trkpt lat="57.750317107039" lon="13.185632771734">
        <ele>149</ele>
        <time>2019-08-20T20:42:13Z</time>
      </trkpt>
      <trkpt lat="57.750461527176" lon="13.185755818026">
        <ele>149</ele>
        <time>2019-08-20T20:42:28Z</time>
      </trkpt>
      <trkpt lat="57.750576778301" lon="13.185715081992">
        <ele>149.4</ele>
        <time>2019-08-20T20:42:39Z</time>
      </trkpt>
      <trkpt lat="57.75070091424" lon="13.185944997509">
        <ele>150.2</ele>
        <time>2019-08-20T20:42:48Z</time>
      </trkpt>
      <trkpt lat="57.750800155936" lon="13.186138954675">
        <ele>150.4</ele>
        <time>2019-08-20T20:42:54Z</time>
      </trkpt>
      <trkpt lat="57.750949689032" lon="13.186405582914">
        <ele>151</ele>
        <time>2019-08-20T20:43:02Z</time>
      </trkpt>
      <trkpt lat="57.751071478039" lon="13.186655279715">
        <ele>151.4</ele>
        <time>2019-08-20T20:43:09Z</time>
      </trkpt>
      <trkpt lat="57.75108648164" lon="13.186687885306">
        <ele>151.6</ele>
        <time>2019-08-20T20:43:10Z</time>
      </trkpt>
      <trkpt lat="57.751235847098" lon="13.186876729513">
        <ele>150.4</ele>
        <time>2019-08-20T20:43:18Z</time>
      </trkpt>
      <trkpt lat="57.751331736034" lon="13.186981670901">
        <ele>149.4</ele>
        <time>2019-08-20T20:43:23Z</time>
      </trkpt>
      <trkpt lat="57.751810426343" lon="13.186709762065">
        <ele>145.8</ele>
        <time>2019-08-20T20:45:06Z</time>
      </trkpt>
      <trkpt lat="57.751664413645" lon="13.186687885306">
        <ele>146</ele>
        <time>2019-08-20T20:45:13Z</time>
      </trkpt>
      <trkpt lat="57.75150557664" lon="13.186950154957">
        <ele>146</ele>
        <time>2019-08-20T20:45:21Z</time>
      </trkpt>
      <trkpt lat="57.751387559488" lon="13.187231032426">
        <ele>145.6</ele>
        <time>2019-08-20T20:45:27Z</time>
      </trkpt>
      <trkpt lat="57.751336597536" lon="13.187587346995">
        <ele>146</ele>
        <time>2019-08-20T20:45:34Z</time>
      </trkpt>
      <trkpt lat="57.751324946695" lon="13.187934692931">
        <ele>146.2</ele>
        <time>2019-08-20T20:45:41Z</time>
      </trkpt>
      <trkpt lat="57.751337687183" lon="13.188279859573">
        <ele>146.6</ele>
        <time>2019-08-20T20:45:48Z</time>
      </trkpt>
      <trkpt lat="57.751352104051" lon="13.18862125436">
        <ele>145.8</ele>
        <time>2019-08-20T20:45:55Z</time>
      </trkpt>
      <trkpt lat="57.75137146624" lon="13.188985531734">
        <ele>144.8</ele>
        <time>2019-08-20T20:46:03Z</time>
      </trkpt>
      <trkpt lat="57.751354534802" lon="13.189217458907">
        <ele>143.8</ele>
        <time>2019-08-20T20:46:08Z</time>
      </trkpt>
      <trkpt lat="57.751310948922" lon="13.189376798826">
        <ele>142.6</ele>
        <time>2019-08-20T20:46:13Z</time>
      </trkpt>
      <trkpt lat="57.751248419948" lon="13.189477130169">
        <ele>141.4</ele>
        <time>2019-08-20T20:46:17Z</time>
      </trkpt>
      <trkpt lat="57.75113677304" lon="13.189626579446">
        <ele>140.4</ele>
        <time>2019-08-20T20:46:23Z</time>
      </trkpt>
      <trkpt lat="57.751089750581" lon="13.189966968405">
        <ele>140.4</ele>
        <time>2019-08-20T20:46:31Z</time>
      </trkpt>
      <trkpt lat="57.751092013694" lon="13.190310877762">
        <ele>141.2</ele>
        <time>2019-08-20T20:46:38Z</time>
      </trkpt>
      <trkpt lat="57.751090337314" lon="13.190363348456">
        <ele>141.4</ele>
        <time>2019-08-20T20:46:39Z</time>
      </trkpt>
      <trkpt lat="57.751146076949" lon="13.190726620002">
        <ele>141.4</ele>
        <time>2019-08-20T20:46:47Z</time>
      </trkpt>
      <trkpt lat="57.751109448046" lon="13.19108804753">
        <ele>141.6</ele>
        <time>2019-08-20T20:46:54Z</time>
      </trkpt>
      <trkpt lat="57.75104457214" lon="13.191434387638">
        <ele>142.4</ele>
        <time>2019-08-20T20:47:01Z</time>
      </trkpt>
      <trkpt lat="57.75103535205" lon="13.191473698749">
        <ele>142.4</ele>
        <time>2019-08-20T20:47:02Z</time>
      </trkpt>
      <trkpt lat="57.750951365412" lon="13.191813417156">
        <ele>143.4</ele>
        <time>2019-08-20T20:47:11Z</time>
      </trkpt>
      <trkpt lat="57.750941642408" lon="13.191849710783">
        <ele>143.6</ele>
        <time>2019-08-20T20:47:12Z</time>
      </trkpt>
      <trkpt lat="57.750868636059" lon="13.192147016776">
        <ele>144.6</ele>
        <time>2019-08-20T20:47:20Z</time>
      </trkpt>
      <trkpt lat="57.750792779864" lon="13.192459074913">
        <ele>145.4</ele>
        <time>2019-08-20T20:47:28Z</time>
      </trkpt>
      <trkpt lat="57.750774339684" lon="13.192541133714">
        <ele>145.6</ele>
        <time>2019-08-20T20:47:30Z</time>
      </trkpt>
      <trkpt lat="57.750688844304" lon="13.192873643687">
        <ele>146</ele>
        <time>2019-08-20T20:47:38Z</time>
      </trkpt>
      <trkpt lat="57.750608210426" lon="13.193219061786">
        <ele>146</ele>
        <time>2019-08-20T20:47:46Z</time>
      </trkpt>
      <trkpt lat="57.75052992348" lon="13.193572191233">
        <ele>146</ele>
        <time>2019-08-20T20:47:54Z</time>
      </trkpt>
      <trkpt lat="57.750453815828" lon="13.193879471687">
        <ele>145.8</ele>
        <time>2019-08-20T20:48:01Z</time>
      </trkpt>
      <trkpt lat="57.750379719832" lon="13.1941918651">
        <ele>145.8</ele>
        <time>2019-08-20T20:48:08Z</time>
      </trkpt>
      <trkpt lat="57.750285423457" lon="13.194487997627">
        <ele>146.2</ele>
        <time>2019-08-20T20:48:15Z</time>
      </trkpt>
      <trkpt lat="57.750182242268" lon="13.194769042734">
        <ele>146.4</ele>
        <time>2019-08-20T20:48:22Z</time>
      </trkpt>
      <trkpt lat="57.750137985836" lon="13.194936764553">
        <ele>147</ele>
        <time>2019-08-20T20:48:26Z</time>
      </trkpt>
      <trkpt lat="57.750095070508" lon="13.194991917455">
        <ele>146.6</ele>
        <time>2019-08-20T20:48:28Z</time>
      </trkpt>
      <trkpt lat="57.750041007253" lon="13.194970292153">
        <ele>145.8</ele>
        <time>2019-08-20T20:48:30Z</time>
      </trkpt>
      <trkpt lat="57.749860796403" lon="13.194787063819">
        <ele>144.8</ele>
        <time>2019-08-20T20:48:37Z</time>
      </trkpt>
      <trkpt lat="57.749677651888" lon="13.194654126885">
        <ele>144.2</ele>
        <time>2019-08-20T20:48:44Z</time>
      </trkpt>
      <trkpt lat="57.749597940019" lon="13.194606266236">
        <ele>143.8</ele>
        <time>2019-08-20T20:48:47Z</time>
      </trkpt>
      <trkpt lat="57.749413370581" lon="13.194547760574">
        <ele>143.2</ele>
        <time>2019-08-20T20:48:54Z</time>
      </trkpt>
      <trkpt lat="57.749230226066" lon="13.194535020086">
        <ele>143</ele>
        <time>2019-08-20T20:49:01Z</time>
      </trkpt>
      <trkpt lat="57.749153112586" lon="13.194512221318">
        <ele>142.6</ele>
        <time>2019-08-20T20:49:04Z</time>
      </trkpt>
      <trkpt lat="57.748999472359" lon="13.194315162849">
        <ele>142.6</ele>
        <time>2019-08-20T20:49:12Z</time>
      </trkpt>
      <trkpt lat="57.74900357949" lon="13.194253723522">
        <ele>142.8</ele>
        <time>2019-08-20T20:49:14Z</time>
      </trkpt>
    </trkseg>
  </trk>
</gpx>